sensor_id;sensor_type;location;lat;lon;timestamp;temperature;humidity
52211;DHT22;38179;52.756;6.906;2024-03-08T00:01:10;2.40;99.90
52211;DHT22;38179;52.756;6.906;2024-03-08T00:03:35;1.90;99.90
52211;DHT22;38179;52.756;6.906;2024-03-08T00:06:01;1.90;99.90
52211;DHT22;38179;52.756;6.906;2024-03-08T00:08:28;1.90;99.90
52211;DHT22;38179;52.756;6.906;2024-03-08T00:10:53;1.90;99.90
52211;DHT22;38179;52.756;6.906;2024-03-08T00:13:19;1.90;99.90
52211;DHT22;38179;52.756;6.906;2024-03-08T00:15:45;1.90;99.90
52211;DHT22;38179;52.756;6.906;2024-03-08T00:18:11;2.10;99.90
52211;DHT22;38179;52.756;6.906;2024-03-08T00:20:37;1.80;99.90
52211;DHT22;38179;52.756;6.906;2024-03-08T00:23:02;1.80;99.90
52211;DHT22;38179;52.756;6.906;2024-03-08T00:25:28;1.80;99.90
52211;DHT22;38179;52.756;6.906;2024-03-08T00:27:54;1.80;99.90
52211;DHT22;38179;52.756;6.906;2024-03-08T00:30:23;1.80;99.90
52211;DHT22;38179;52.756;6.906;2024-03-08T00:32:50;1.90;99.90
52211;DHT22;38179;52.756;6.906;2024-03-08T00:35:16;1.70;99.90
52211;DHT22;38179;52.756;6.906;2024-03-08T00:37:42;2.30;99.90
52211;DHT22;38179;52.756;6.906;2024-03-08T00:40:08;1.80;99.90
52211;DHT22;38179;52.756;6.906;2024-03-08T00:42:34;1.70;99.90
52211;DHT22;38179;52.756;6.906;2024-03-08T00:45:01;1.70;99.90
52211;DHT22;38179;52.756;6.906;2024-03-08T00:47:26;1.70;99.90
52211;DHT22;38179;52.756;6.906;2024-03-08T00:49:52;1.70;99.90
52211;DHT22;38179;52.756;6.906;2024-03-08T00:52:19;1.70;99.90
52211;DHT22;38179;52.756;6.906;2024-03-08T00:54:44;1.60;99.90
52211;DHT22;38179;52.756;6.906;2024-03-08T00:57:10;1.60;99.90
52211;DHT22;38179;52.756;6.906;2024-03-08T00:59:38;1.60;99.90
52211;DHT22;38179;52.756;6.906;2024-03-08T01:02:03;1.60;99.90
52211;DHT22;38179;52.756;6.906;2024-03-08T01:04:29;1.80;99.90
52211;DHT22;38179;52.756;6.906;2024-03-08T01:06:56;1.60;99.90
52211;DHT22;38179;52.756;6.906;2024-03-08T01:09:23;1.60;99.90
52211;DHT22;38179;52.756;6.906;2024-03-08T01:11:49;1.60;99.90
52211;DHT22;38179;52.756;6.906;2024-03-08T01:14:15;1.60;99.90
52211;DHT22;38179;52.756;6.906;2024-03-08T01:16:41;1.50;99.90
52211;DHT22;38179;52.756;6.906;2024-03-08T01:19:06;1.50;99.90
52211;DHT22;38179;52.756;6.906;2024-03-08T01:21:32;1.50;99.90
52211;DHT22;38179;52.756;6.906;2024-03-08T01:23:58;1.50;99.90
52211;DHT22;38179;52.756;6.906;2024-03-08T01:26:24;1.50;99.90
52211;DHT22;38179;52.756;6.906;2024-03-08T01:28:50;1.50;99.90
52211;DHT22;38179;52.756;6.906;2024-03-08T01:31:15;1.50;99.90
52211;DHT22;38179;52.756;6.906;2024-03-08T01:33:41;1.50;99.90
52211;DHT22;38179;52.756;6.906;2024-03-08T01:36:07;1.60;99.90
52211;DHT22;38179;52.756;6.906;2024-03-08T01:38:33;1.50;99.90
52211;DHT22;38179;52.756;6.906;2024-03-08T01:41:01;1.50;99.90
52211;DHT22;38179;52.756;6.906;2024-03-08T01:43:28;1.90;99.90
52211;DHT22;38179;52.756;6.906;2024-03-08T01:45:58;2.00;99.90
52211;DHT22;38179;52.756;6.906;2024-03-08T01:48:25;1.40;99.90
52211;DHT22;38179;52.756;6.906;2024-03-08T01:50:52;1.40;99.90
52211;DHT22;38179;52.756;6.906;2024-03-08T01:53:20;1.40;99.90
52211;DHT22;38179;52.756;6.906;2024-03-08T01:55:47;1.40;99.90
52211;DHT22;38179;52.756;6.906;2024-03-08T01:58:13;1.40;99.90
52211;DHT22;38179;52.756;6.906;2024-03-08T02:00:44;1.30;99.90
52211;DHT22;38179;52.756;6.906;2024-03-08T02:03:11;1.30;99.90
52211;DHT22;38179;52.756;6.906;2024-03-08T02:05:40;1.30;99.90
52211;DHT22;38179;52.756;6.906;2024-03-08T02:08:07;1.30;99.90
52211;DHT22;38179;52.756;6.906;2024-03-08T02:10:33;1.30;99.90
52211;DHT22;38179;52.756;6.906;2024-03-08T02:13:01;1.50;99.90
52211;DHT22;38179;52.756;6.906;2024-03-08T02:18:19;1.20;99.90
52211;DHT22;38179;52.756;6.906;2024-03-08T02:21:01;1.20;99.90
52211;DHT22;38179;52.756;6.906;2024-03-08T02:23:28;1.20;99.90
52211;DHT22;38179;52.756;6.906;2024-03-08T02:25:55;1.10;99.90
52211;DHT22;38179;52.756;6.906;2024-03-08T02:28:22;1.10;99.90
52211;DHT22;38179;52.756;6.906;2024-03-08T02:30:51;1.90;99.90
52211;DHT22;38179;52.756;6.906;2024-03-08T02:33:21;1.10;99.90
52211;DHT22;38179;52.756;6.906;2024-03-08T02:35:48;1.30;99.90
52211;DHT22;38179;52.756;6.906;2024-03-08T02:38:15;1.00;99.90
52211;DHT22;38179;52.756;6.906;2024-03-08T02:40:48;1.00;99.90
52211;DHT22;38179;52.756;6.906;2024-03-08T02:43:15;1.50;99.90
52211;DHT22;38179;52.756;6.906;2024-03-08T02:45:42;1.00;99.90
52211;DHT22;38179;52.756;6.906;2024-03-08T02:48:08;1.00;99.90
52211;DHT22;38179;52.756;6.906;2024-03-08T02:50:34;0.90;99.90
52211;DHT22;38179;52.756;6.906;2024-03-08T02:53:00;1.00;99.90
52211;DHT22;38179;52.756;6.906;2024-03-08T02:55:26;0.90;99.90
52211;DHT22;38179;52.756;6.906;2024-03-08T02:57:52;1.40;99.90
52211;DHT22;38179;52.756;6.906;2024-03-08T03:00:20;0.90;99.90
52211;DHT22;38179;52.756;6.906;2024-03-08T03:02:47;0.90;99.90
52211;DHT22;38179;52.756;6.906;2024-03-08T03:05:12;0.90;99.90
52211;DHT22;38179;52.756;6.906;2024-03-08T03:07:38;1.60;99.90
52211;DHT22;38179;52.756;6.906;2024-03-08T03:10:04;0.80;99.90
52211;DHT22;38179;52.756;6.906;2024-03-08T03:12:31;0.90;99.90
52211;DHT22;38179;52.756;6.906;2024-03-08T03:14:59;0.80;99.90
52211;DHT22;38179;52.756;6.906;2024-03-08T03:17:25;0.80;99.90
52211;DHT22;38179;52.756;6.906;2024-03-08T03:19:51;0.80;99.90
52211;DHT22;38179;52.756;6.906;2024-03-08T03:22:20;2.00;99.90
52211;DHT22;38179;52.756;6.906;2024-03-08T03:24:46;0.80;99.90
52211;DHT22;38179;52.756;6.906;2024-03-08T03:27:12;0.80;99.90
52211;DHT22;38179;52.756;6.906;2024-03-08T03:29:39;0.80;99.90
52211;DHT22;38179;52.756;6.906;2024-03-08T03:32:08;0.80;99.90
52211;DHT22;38179;52.756;6.906;2024-03-08T03:34:34;0.80;99.90
52211;DHT22;38179;52.756;6.906;2024-03-08T03:37:06;0.80;99.90
52211;DHT22;38179;52.756;6.906;2024-03-08T03:39:38;0.80;99.90
52211;DHT22;38179;52.756;6.906;2024-03-08T03:42:19;0.80;99.90
52211;DHT22;38179;52.756;6.906;2024-03-08T03:44:46;0.70;99.90
52211;DHT22;38179;52.756;6.906;2024-03-08T03:47:13;0.70;99.90
52211;DHT22;38179;52.756;6.906;2024-03-08T03:49:43;0.70;99.90
52211;DHT22;38179;52.756;6.906;2024-03-08T03:52:09;0.70;99.90
52211;DHT22;38179;52.756;6.906;2024-03-08T03:54:35;0.70;99.90
52211;DHT22;38179;52.756;6.906;2024-03-08T03:57:01;0.80;99.90
52211;DHT22;38179;52.756;6.906;2024-03-08T03:59:28;0.70;99.90
52211;DHT22;38179;52.756;6.906;2024-03-08T04:01:54;1.60;99.90
52211;DHT22;38179;52.756;6.906;2024-03-08T04:04:20;0.70;99.90
52211;DHT22;38179;52.756;6.906;2024-03-08T04:06:46;0.70;99.90
52211;DHT22;38179;52.756;6.906;2024-03-08T04:09:12;0.60;99.90
52211;DHT22;38179;52.756;6.906;2024-03-08T04:11:38;1.70;99.90
52211;DHT22;38179;52.756;6.906;2024-03-08T04:14:04;0.60;99.90
52211;DHT22;38179;52.756;6.906;2024-03-08T04:16:31;0.70;99.90
52211;DHT22;38179;52.756;6.906;2024-03-08T04:18:57;1.40;99.90
52211;DHT22;38179;52.756;6.906;2024-03-08T04:21:23;0.70;99.90
52211;DHT22;38179;52.756;6.906;2024-03-08T04:23:49;1.40;99.90
52211;DHT22;38179;52.756;6.906;2024-03-08T04:26:14;1.60;99.90
52211;DHT22;38179;52.756;6.906;2024-03-08T04:28:40;0.60;99.90
52211;DHT22;38179;52.756;6.906;2024-03-08T04:31:07;0.70;99.90
52211;DHT22;38179;52.756;6.906;2024-03-08T04:33:32;0.60;99.90
52211;DHT22;38179;52.756;6.906;2024-03-08T04:36:01;0.60;99.90
52211;DHT22;38179;52.756;6.906;2024-03-08T04:38:27;0.60;99.90
52211;DHT22;38179;52.756;6.906;2024-03-08T04:40:53;0.60;99.90
52211;DHT22;38179;52.756;6.906;2024-03-08T04:43:19;1.00;99.90
52211;DHT22;38179;52.756;6.906;2024-03-08T04:45:46;0.50;99.90
52211;DHT22;38179;52.756;6.906;2024-03-08T04:48:11;0.70;99.90
52211;DHT22;38179;52.756;6.906;2024-03-08T04:50:37;0.50;99.90
52211;DHT22;38179;52.756;6.906;2024-03-08T04:53:03;0.50;99.90
52211;DHT22;38179;52.756;6.906;2024-03-08T04:55:34;1.60;99.90
52211;DHT22;38179;52.756;6.906;2024-03-08T04:57:59;0.80;99.90
52211;DHT22;38179;52.756;6.906;2024-03-08T05:00:25;0.50;99.90
52211;DHT22;38179;52.756;6.906;2024-03-08T05:02:51;0.50;99.90
52211;DHT22;38179;52.756;6.906;2024-03-08T05:05:19;0.50;99.90
52211;DHT22;38179;52.756;6.906;2024-03-08T05:07:44;0.50;99.90
52211;DHT22;38179;52.756;6.906;2024-03-08T05:10:11;0.50;99.90
52211;DHT22;38179;52.756;6.906;2024-03-08T05:12:37;0.80;99.90
52211;DHT22;38179;52.756;6.906;2024-03-08T05:15:05;0.40;99.90
52211;DHT22;38179;52.756;6.906;2024-03-08T05:17:31;0.40;99.90
52211;DHT22;38179;52.756;6.906;2024-03-08T05:19:56;0.70;99.90
52211;DHT22;38179;52.756;6.906;2024-03-08T05:22:22;0.80;99.90
52211;DHT22;38179;52.756;6.906;2024-03-08T05:24:48;0.40;99.90
52211;DHT22;38179;52.756;6.906;2024-03-08T05:27:13;0.40;99.90
52211;DHT22;38179;52.756;6.906;2024-03-08T05:29:39;0.30;99.90
52211;DHT22;38179;52.756;6.906;2024-03-08T05:32:05;0.30;99.90
52211;DHT22;38179;52.756;6.906;2024-03-08T05:34:32;0.30;99.90
52211;DHT22;38179;52.756;6.906;2024-03-08T05:36:58;1.50;99.90
52211;DHT22;38179;52.756;6.906;2024-03-08T05:39:24;0.30;99.90
52211;DHT22;38179;52.756;6.906;2024-03-08T05:41:50;0.70;99.90
52211;DHT22;38179;52.756;6.906;2024-03-08T05:44:16;1.00;99.90
52211;DHT22;38179;52.756;6.906;2024-03-08T05:46:45;0.20;99.90
52211;DHT22;38179;52.756;6.906;2024-03-08T05:49:12;0.20;99.90
52211;DHT22;38179;52.756;6.906;2024-03-08T05:51:39;0.20;99.90
52211;DHT22;38179;52.756;6.906;2024-03-08T05:54:09;0.20;99.90
52211;DHT22;38179;52.756;6.906;2024-03-08T05:56:36;0.20;99.90
52211;DHT22;38179;52.756;6.906;2024-03-08T05:59:03;0.50;99.90
52211;DHT22;38179;52.756;6.906;2024-03-08T06:01:29;0.10;99.90
52211;DHT22;38179;52.756;6.906;2024-03-08T06:03:55;0.70;99.90
52211;DHT22;38179;52.756;6.906;2024-03-08T06:06:25;1.00;99.90
52211;DHT22;38179;52.756;6.906;2024-03-08T06:08:52;0.10;99.90
52211;DHT22;38179;52.756;6.906;2024-03-08T06:11:19;0.10;99.90
52211;DHT22;38179;52.756;6.906;2024-03-08T06:13:46;0.10;99.90
52211;DHT22;38179;52.756;6.906;2024-03-08T06:16:12;0.10;99.90
52211;DHT22;38179;52.756;6.906;2024-03-08T06:18:38;1.10;99.90
52211;DHT22;38179;52.756;6.906;2024-03-08T06:21:07;0.10;99.90
52211;DHT22;38179;52.756;6.906;2024-03-08T06:23:35;0.20;99.90
52211;DHT22;38179;52.756;6.906;2024-03-08T06:26:04;0.10;99.90
52211;DHT22;38179;52.756;6.906;2024-03-08T06:28:30;0.20;99.90
52211;DHT22;38179;52.756;6.906;2024-03-08T06:31:01;0.10;99.90
52211;DHT22;38179;52.756;6.906;2024-03-08T06:33:28;0.10;99.90
52211;DHT22;38179;52.756;6.906;2024-03-08T06:35:54;0.20;99.90
52211;DHT22;38179;52.756;6.906;2024-03-08T06:38:26;1.50;99.90
52211;DHT22;38179;52.756;6.906;2024-03-08T06:40:52;0.10;99.90
52211;DHT22;38179;52.756;6.906;2024-03-08T06:43:18;0.20;99.90
52211;DHT22;38179;52.756;6.906;2024-03-08T06:45:45;0.20;99.90
52211;DHT22;38179;52.756;6.906;2024-03-08T06:48:18;0.20;99.90
52211;DHT22;38179;52.756;6.906;2024-03-08T06:50:44;0.20;99.90
52211;DHT22;38179;52.756;6.906;2024-03-08T06:53:11;0.20;99.90
52211;DHT22;38179;52.756;6.906;2024-03-08T06:55:37;1.00;99.90
52211;DHT22;38179;52.756;6.906;2024-03-08T06:58:03;0.30;99.90
52211;DHT22;38179;52.756;6.906;2024-03-08T07:00:29;0.30;99.90
52211;DHT22;38179;52.756;6.906;2024-03-08T07:02:59;0.30;99.90
52211;DHT22;38179;52.756;6.906;2024-03-08T07:05:28;0.40;99.90
52211;DHT22;38179;52.756;6.906;2024-03-08T07:07:54;0.40;99.90
52211;DHT22;38179;52.756;6.906;2024-03-08T07:10:23;0.40;99.90
52211;DHT22;38179;52.756;6.906;2024-03-08T07:12:53;0.40;99.90
52211;DHT22;38179;52.756;6.906;2024-03-08T07:15:19;0.50;99.90
52211;DHT22;38179;52.756;6.906;2024-03-08T07:17:49;0.50;99.90
52211;DHT22;38179;52.756;6.906;2024-03-08T07:20:15;0.50;99.90
52211;DHT22;38179;52.756;6.906;2024-03-08T07:22:44;0.50;99.90
52211;DHT22;38179;52.756;6.906;2024-03-08T07:25:13;0.60;99.90
52211;DHT22;38179;52.756;6.906;2024-03-08T07:27:50;0.60;99.90
52211;DHT22;38179;52.756;6.906;2024-03-08T07:30:17;0.80;99.90
52211;DHT22;38179;52.756;6.906;2024-03-08T07:33:01;0.70;99.90
52211;DHT22;38179;52.756;6.906;2024-03-08T07:35:30;0.70;99.90
52211;DHT22;38179;52.756;6.906;2024-03-08T07:37:56;1.00;99.90
52211;DHT22;38179;52.756;6.906;2024-03-08T07:40:23;0.80;99.90
52211;DHT22;38179;52.756;6.906;2024-03-08T07:42:49;0.80;99.90
52211;DHT22;38179;52.756;6.906;2024-03-08T07:45:15;0.90;99.90
52211;DHT22;38179;52.756;6.906;2024-03-08T07:47:44;1.00;99.90
52211;DHT22;38179;52.756;6.906;2024-03-08T07:50:10;1.00;99.90
52211;DHT22;38179;52.756;6.906;2024-03-08T07:52:36;1.10;99.90
52211;DHT22;38179;52.756;6.906;2024-03-08T07:55:02;2.50;99.90
52211;DHT22;38179;52.756;6.906;2024-03-08T07:57:29;1.30;99.90
52211;DHT22;38179;52.756;6.906;2024-03-08T07:59:55;1.20;99.90
52211;DHT22;38179;52.756;6.906;2024-03-08T08:02:21;1.20;99.90
52211;DHT22;38179;52.756;6.906;2024-03-08T08:04:47;1.30;99.90
52211;DHT22;38179;52.756;6.906;2024-03-08T08:07:12;1.40;99.90
52211;DHT22;38179;52.756;6.906;2024-03-08T08:09:40;1.40;99.90
52211;DHT22;38179;52.756;6.906;2024-03-08T08:12:11;1.40;99.90
52211;DHT22;38179;52.756;6.906;2024-03-08T08:14:40;1.50;99.90
52211;DHT22;38179;52.756;6.906;2024-03-08T08:17:06;1.70;99.90
52211;DHT22;38179;52.756;6.906;2024-03-08T08:19:34;1.60;99.90
52211;DHT22;38179;52.756;6.906;2024-03-08T08:22:01;1.60;99.90
52211;DHT22;38179;52.756;6.906;2024-03-08T08:24:27;1.60;99.90
52211;DHT22;38179;52.756;6.906;2024-03-08T08:26:53;1.70;99.90
52211;DHT22;38179;52.756;6.906;2024-03-08T08:29:19;1.80;99.90
52211;DHT22;38179;52.756;6.906;2024-03-08T08:31:46;1.90;99.90
52211;DHT22;38179;52.756;6.906;2024-03-08T08:34:12;1.90;99.90
52211;DHT22;38179;52.756;6.906;2024-03-08T08:36:39;1.90;99.90
52211;DHT22;38179;52.756;6.906;2024-03-08T08:39:05;2.00;99.90
52211;DHT22;38179;52.756;6.906;2024-03-08T08:41:36;2.00;99.90
52211;DHT22;38179;52.756;6.906;2024-03-08T08:44:02;2.00;99.90
52211;DHT22;38179;52.756;6.906;2024-03-08T08:46:28;2.20;99.90
52211;DHT22;38179;52.756;6.906;2024-03-08T08:48:54;2.20;99.90
52211;DHT22;38179;52.756;6.906;2024-03-08T08:51:19;2.20;99.90
52211;DHT22;38179;52.756;6.906;2024-03-08T08:53:45;2.30;99.90
52211;DHT22;38179;52.756;6.906;2024-03-08T08:56:13;2.30;99.90
52211;DHT22;38179;52.756;6.906;2024-03-08T08:58:42;2.40;99.90
52211;DHT22;38179;52.756;6.906;2024-03-08T09:01:11;2.50;99.90
52211;DHT22;38179;52.756;6.906;2024-03-08T09:03:37;2.50;99.90
52211;DHT22;38179;52.756;6.906;2024-03-08T09:06:06;2.80;99.90
52211;DHT22;38179;52.756;6.906;2024-03-08T09:08:36;2.60;99.90
52211;DHT22;38179;52.756;6.906;2024-03-08T09:11:02;2.60;99.90
52211;DHT22;38179;52.756;6.906;2024-03-08T09:13:30;2.70;99.90
52211;DHT22;38179;52.756;6.906;2024-03-08T09:15:56;2.70;99.90
52211;DHT22;38179;52.756;6.906;2024-03-08T09:18:22;2.70;99.90
52211;DHT22;38179;52.756;6.906;2024-03-08T09:20:49;2.80;99.90
52211;DHT22;38179;52.756;6.906;2024-03-08T09:23:15;2.80;99.90
52211;DHT22;38179;52.756;6.906;2024-03-08T09:25:42;2.90;99.90
52211;DHT22;38179;52.756;6.906;2024-03-08T09:28:09;2.90;99.90
52211;DHT22;38179;52.756;6.906;2024-03-08T09:30:37;3.00;99.90
52211;DHT22;38179;52.756;6.906;2024-03-08T09:33:04;3.80;99.90
52211;DHT22;38179;52.756;6.906;2024-03-08T09:35:30;3.10;99.90
52211;DHT22;38179;52.756;6.906;2024-03-08T09:37:55;3.70;99.90
52211;DHT22;38179;52.756;6.906;2024-03-08T09:40:21;3.70;99.90
52211;DHT22;38179;52.756;6.906;2024-03-08T09:42:49;3.70;99.90
52211;DHT22;38179;52.756;6.906;2024-03-08T09:45:16;3.90;99.90
52211;DHT22;38179;52.756;6.906;2024-03-08T09:47:43;3.40;99.90
52211;DHT22;38179;52.756;6.906;2024-03-08T09:50:10;3.50;99.90
52211;DHT22;38179;52.756;6.906;2024-03-08T09:52:38;4.10;99.90
52211;DHT22;38179;52.756;6.906;2024-03-08T09:55:09;3.70;99.90
52211;DHT22;38179;52.756;6.906;2024-03-08T09:57:39;3.70;99.90
52211;DHT22;38179;52.756;6.906;2024-03-08T10:00:06;3.80;99.90
52211;DHT22;38179;52.756;6.906;2024-03-08T10:02:50;3.90;99.90
52211;DHT22;38179;52.756;6.906;2024-03-08T10:05:18;4.00;99.90
52211;DHT22;38179;52.756;6.906;2024-03-08T10:07:44;4.00;99.90
52211;DHT22;38179;52.756;6.906;2024-03-08T10:10:09;4.00;99.90
52211;DHT22;38179;52.756;6.906;2024-03-08T10:12:38;4.10;99.90
52211;DHT22;38179;52.756;6.906;2024-03-08T10:15:07;4.50;99.90
52211;DHT22;38179;52.756;6.906;2024-03-08T10:17:34;4.20;99.90
52211;DHT22;38179;52.756;6.906;2024-03-08T10:20:00;4.50;99.90
52211;DHT22;38179;52.756;6.906;2024-03-08T10:22:26;4.40;99.90
52211;DHT22;38179;52.756;6.906;2024-03-08T10:24:52;4.40;99.90
52211;DHT22;38179;52.756;6.906;2024-03-08T10:27:18;4.90;99.90
52211;DHT22;38179;52.756;6.906;2024-03-08T10:29:48;4.50;99.90
52211;DHT22;38179;52.756;6.906;2024-03-08T10:32:14;4.60;99.90
52211;DHT22;38179;52.756;6.906;2024-03-08T10:34:39;4.60;99.90
52211;DHT22;38179;52.756;6.906;2024-03-08T10:37:07;4.70;99.90
52211;DHT22;38179;52.756;6.906;2024-03-08T10:39:37;4.80;99.90
52211;DHT22;38179;52.756;6.906;2024-03-08T10:42:04;4.80;99.90
52211;DHT22;38179;52.756;6.906;2024-03-08T10:52:14;5.00;99.90
52211;DHT22;38179;52.756;6.906;2024-03-08T10:54:41;5.10;99.90
52211;DHT22;38179;52.756;6.906;2024-03-08T10:57:08;5.20;99.90
52211;DHT22;38179;52.756;6.906;2024-03-08T10:59:37;5.20;99.90
52211;DHT22;38179;52.756;6.906;2024-03-08T11:02:04;5.30;99.90
52211;DHT22;38179;52.756;6.906;2024-03-08T11:04:31;5.50;99.90
52211;DHT22;38179;52.756;6.906;2024-03-08T11:07:02;5.40;99.90
52211;DHT22;38179;52.756;6.906;2024-03-08T11:09:35;5.50;99.90
52211;DHT22;38179;52.756;6.906;2024-03-08T11:12:29;5.50;99.90
52211;DHT22;38179;52.756;6.906;2024-03-08T11:15:02;5.50;99.90
52211;DHT22;38179;52.756;6.906;2024-03-08T11:19:58;5.70;99.90
52211;DHT22;38179;52.756;6.906;2024-03-08T11:22:32;5.60;99.90
52211;DHT22;38179;52.756;6.906;2024-03-08T11:25:02;5.80;99.90
52211;DHT22;38179;52.756;6.906;2024-03-08T11:27:29;5.70;99.90
52211;DHT22;38179;52.756;6.906;2024-03-08T11:30:00;5.90;99.90
52211;DHT22;38179;52.756;6.906;2024-03-08T11:32:35;5.90;99.90
52211;DHT22;38179;52.756;6.906;2024-03-08T11:35:03;5.90;99.90
52211;DHT22;38179;52.756;6.906;2024-03-08T11:37:33;6.00;99.90
52211;DHT22;38179;52.756;6.906;2024-03-08T11:40:00;6.10;99.90
52211;DHT22;38179;52.756;6.906;2024-03-08T11:42:27;6.10;99.90
52211;DHT22;38179;52.756;6.906;2024-03-08T11:44:53;6.20;99.90
52211;DHT22;38179;52.756;6.906;2024-03-08T11:47:19;6.30;99.90
52211;DHT22;38179;52.756;6.906;2024-03-08T11:49:45;6.30;99.90
52211;DHT22;38179;52.756;6.906;2024-03-08T11:52:17;6.40;99.90
52211;DHT22;38179;52.756;6.906;2024-03-08T11:54:51;6.50;99.90
52211;DHT22;38179;52.756;6.906;2024-03-08T11:57:22;6.60;99.90
52211;DHT22;38179;52.756;6.906;2024-03-08T11:59:53;6.60;99.90
52211;DHT22;38179;52.756;6.906;2024-03-08T12:02:18;6.60;99.90
52211;DHT22;38179;52.756;6.906;2024-03-08T12:04:47;6.90;99.90
52211;DHT22;38179;52.756;6.906;2024-03-08T12:07:14;6.70;99.90
52211;DHT22;38179;52.756;6.906;2024-03-08T12:09:44;6.70;99.90
52211;DHT22;38179;52.756;6.906;2024-03-08T12:12:12;6.70;99.90
52211;DHT22;38179;52.756;6.906;2024-03-08T12:14:38;6.80;99.90
52211;DHT22;38179;52.756;6.906;2024-03-08T12:17:08;6.80;99.90
52211;DHT22;38179;52.756;6.906;2024-03-08T12:19:35;6.90;99.90
52211;DHT22;38179;52.756;6.906;2024-03-08T12:22:09;7.20;99.90
52211;DHT22;38179;52.756;6.906;2024-03-08T12:24:36;7.40;99.90
52211;DHT22;38179;52.756;6.906;2024-03-08T12:27:17;7.40;99.90
52211;DHT22;38179;52.756;6.906;2024-03-08T12:29:43;7.30;99.90
52211;DHT22;38179;52.756;6.906;2024-03-08T12:32:09;7.40;99.90
52211;DHT22;38179;52.756;6.906;2024-03-08T12:34:37;7.50;99.90
52211;DHT22;38179;52.756;6.906;2024-03-08T12:37:02;7.80;99.90
52211;DHT22;38179;52.756;6.906;2024-03-08T12:39:32;7.60;99.90
52211;DHT22;38179;52.756;6.906;2024-03-08T12:41:58;7.60;99.90
52211;DHT22;38179;52.756;6.906;2024-03-08T12:44:25;7.60;99.90
52211;DHT22;38179;52.756;6.906;2024-03-08T12:46:51;7.70;99.90
52211;DHT22;38179;52.756;6.906;2024-03-08T12:49:19;7.70;99.90
52211;DHT22;38179;52.756;6.906;2024-03-08T12:51:47;7.90;99.90
52211;DHT22;38179;52.756;6.906;2024-03-08T12:54:13;7.70;99.90
52211;DHT22;38179;52.756;6.906;2024-03-08T12:56:39;7.60;99.90
52211;DHT22;38179;52.756;6.906;2024-03-08T12:59:08;7.90;99.90
52211;DHT22;38179;52.756;6.906;2024-03-08T13:01:35;7.70;99.90
52211;DHT22;38179;52.756;6.906;2024-03-08T13:04:04;7.70;99.90
52211;DHT22;38179;52.756;6.906;2024-03-08T13:06:32;7.70;99.90
52211;DHT22;38179;52.756;6.906;2024-03-08T13:08:58;7.80;99.90
52211;DHT22;38179;52.756;6.906;2024-03-08T13:11:26;7.70;99.90
52211;DHT22;38179;52.756;6.906;2024-03-08T13:13:52;7.80;99.90
52211;DHT22;38179;52.756;6.906;2024-03-08T13:16:19;7.90;99.90
52211;DHT22;38179;52.756;6.906;2024-03-08T13:18:46;8.00;99.90
52211;DHT22;38179;52.756;6.906;2024-03-08T13:21:14;8.00;99.90
52211;DHT22;38179;52.756;6.906;2024-03-08T13:23:42;7.90;99.90
52211;DHT22;38179;52.756;6.906;2024-03-08T13:26:12;7.90;99.90
52211;DHT22;38179;52.756;6.906;2024-03-08T13:28:51;8.00;99.90
52211;DHT22;38179;52.756;6.906;2024-03-08T13:31:22;8.10;99.90
52211;DHT22;38179;52.756;6.906;2024-03-08T13:33:48;8.10;99.90
52211;DHT22;38179;52.756;6.906;2024-03-08T13:36:14;8.20;99.90
52211;DHT22;38179;52.756;6.906;2024-03-08T13:38:45;8.20;99.90
52211;DHT22;38179;52.756;6.906;2024-03-08T13:41:11;8.20;99.90
52211;DHT22;38179;52.756;6.906;2024-03-08T13:43:43;8.30;99.90
52211;DHT22;38179;52.756;6.906;2024-03-08T13:46:10;8.30;99.90
52211;DHT22;38179;52.756;6.906;2024-03-08T13:48:36;8.40;99.90
52211;DHT22;38179;52.756;6.906;2024-03-08T13:51:05;8.30;99.90
52211;DHT22;38179;52.756;6.906;2024-03-08T13:53:36;8.40;99.90
52211;DHT22;38179;52.756;6.906;2024-03-08T13:56:04;8.40;99.90
52211;DHT22;38179;52.756;6.906;2024-03-08T13:58:31;8.40;99.90
52211;DHT22;38179;52.756;6.906;2024-03-08T14:00:56;8.40;99.90
52211;DHT22;38179;52.756;6.906;2024-03-08T14:03:22;8.40;99.90
52211;DHT22;38179;52.756;6.906;2024-03-08T14:05:50;8.40;99.90
52211;DHT22;38179;52.756;6.906;2024-03-08T14:08:15;8.50;99.90
52211;DHT22;38179;52.756;6.906;2024-03-08T14:10:43;8.50;99.90
52211;DHT22;38179;52.756;6.906;2024-03-08T14:13:09;8.40;99.90
52211;DHT22;38179;52.756;6.906;2024-03-08T14:15:37;8.40;99.90
52211;DHT22;38179;52.756;6.906;2024-03-08T14:18:07;8.30;99.90
52211;DHT22;38179;52.756;6.906;2024-03-08T14:20:33;8.20;99.90
52211;DHT22;38179;52.756;6.906;2024-03-08T14:22:58;8.20;99.90
52211;DHT22;38179;52.756;6.906;2024-03-08T14:25:24;8.10;99.90
52211;DHT22;38179;52.756;6.906;2024-03-08T14:27:51;8.10;99.90
52211;DHT22;38179;52.756;6.906;2024-03-08T14:30:23;8.00;99.90
52211;DHT22;38179;52.756;6.906;2024-03-08T14:33:03;8.00;99.90
52211;DHT22;38179;52.756;6.906;2024-03-08T14:35:31;8.00;99.90
52211;DHT22;38179;52.756;6.906;2024-03-08T14:37:58;8.10;99.90
52211;DHT22;38179;52.756;6.906;2024-03-08T14:40:24;8.10;99.90
52211;DHT22;38179;52.756;6.906;2024-03-08T14:42:51;8.00;99.90
52211;DHT22;38179;52.756;6.906;2024-03-08T14:45:17;8.00;99.90
52211;DHT22;38179;52.756;6.906;2024-03-08T14:47:49;8.00;99.90
52211;DHT22;38179;52.756;6.906;2024-03-08T14:50:19;8.10;99.90
52211;DHT22;38179;52.756;6.906;2024-03-08T14:52:45;8.00;99.90
52211;DHT22;38179;52.756;6.906;2024-03-08T14:55:20;8.00;99.90
52211;DHT22;38179;52.756;6.906;2024-03-08T14:57:50;8.00;99.90
52211;DHT22;38179;52.756;6.906;2024-03-08T15:00:18;7.90;99.90
52211;DHT22;38179;52.756;6.906;2024-03-08T15:02:55;7.90;99.90
52211;DHT22;38179;52.756;6.906;2024-03-08T15:05:21;7.90;99.90
52211;DHT22;38179;52.756;6.906;2024-03-08T15:07:52;7.80;99.90
52211;DHT22;38179;52.756;6.906;2024-03-08T15:10:18;7.80;99.90
52211;DHT22;38179;52.756;6.906;2024-03-08T15:12:46;7.80;99.90
52211;DHT22;38179;52.756;6.906;2024-03-08T15:15:12;7.70;99.90
52211;DHT22;38179;52.756;6.906;2024-03-08T15:17:40;7.70;99.90
52211;DHT22;38179;52.756;6.906;2024-03-08T15:20:07;7.80;99.90
52211;DHT22;38179;52.756;6.906;2024-03-08T15:22:46;7.70;99.90
52211;DHT22;38179;52.756;6.906;2024-03-08T15:25:12;7.70;99.90
52211;DHT22;38179;52.756;6.906;2024-03-08T15:27:42;7.70;99.90
52211;DHT22;38179;52.756;6.906;2024-03-08T15:30:08;7.70;99.90
52211;DHT22;38179;52.756;6.906;2024-03-08T15:32:47;7.70;99.90
52211;DHT22;38179;52.756;6.906;2024-03-08T15:35:14;7.70;99.90
52211;DHT22;38179;52.756;6.906;2024-03-08T15:37:43;7.70;99.90
52211;DHT22;38179;52.756;6.906;2024-03-08T15:40:13;7.70;99.90
52211;DHT22;38179;52.756;6.906;2024-03-08T15:43:04;7.80;99.90
52211;DHT22;38179;52.756;6.906;2024-03-08T15:45:30;7.70;99.90
52211;DHT22;38179;52.756;6.906;2024-03-08T15:47:56;7.70;99.90
52211;DHT22;38179;52.756;6.906;2024-03-08T15:50:22;7.70;99.90
52211;DHT22;38179;52.756;6.906;2024-03-08T15:52:51;7.70;99.90
52211;DHT22;38179;52.756;6.906;2024-03-08T15:55:19;7.70;99.90
52211;DHT22;38179;52.756;6.906;2024-03-08T15:57:51;7.70;99.90
52211;DHT22;38179;52.756;6.906;2024-03-08T16:00:20;7.70;99.90